createdAt,value
2019-02-21T00:01:52.068Z,5.07
2019-02-21T00:04:20.472Z,5.47
2019-02-21T00:06:48.914Z,5.20
2019-02-21T00:09:17.299Z,4.77
2019-02-21T00:11:45.747Z,5.43
2019-02-21T00:14:14.128Z,4.67
2019-02-21T00:16:42.584Z,5.23
2019-02-21T00:19:10.990Z,5.30
2019-02-21T00:21:39.400Z,4.97
2019-02-21T00:24:07.506Z,5.17
2019-02-21T00:26:35.906Z,5.07
2019-02-21T00:29:04.004Z,4.97
2019-02-21T00:31:32.404Z,5.37
2019-02-21T00:34:00.853Z,6.00
2019-02-21T00:36:29.246Z,5.57
2019-02-21T00:38:57.636Z,6.17
2019-02-21T00:41:26.044Z,6.00
2019-02-21T00:43:54.478Z,6.80
2019-02-21T00:46:22.586Z,6.10
2019-02-21T00:48:51.017Z,6.07
2019-02-21T00:51:19.416Z,7.33
2019-02-21T00:53:47.853Z,7.00
2019-02-21T00:56:16.254Z,6.77
2019-02-21T00:58:44.698Z,6.63
2019-02-21T01:01:13.143Z,7.30
2019-02-21T01:03:41.805Z,6.25
2019-02-21T01:06:09.884Z,6.10
2019-02-21T01:08:38.281Z,7.47
2019-02-21T01:11:06.359Z,6.13
2019-02-21T01:13:34.760Z,6.30
2019-02-21T01:16:03.433Z,6.93
2019-02-21T01:18:31.843Z,6.35
2019-02-21T01:21:00.245Z,6.50
2019-02-21T01:23:28.662Z,5.97
2019-02-21T01:25:57.054Z,6.77
2019-02-21T01:28:25.493Z,6.87
2019-02-21T01:30:57.015Z,5.97
2019-02-21T01:33:23.762Z,7.17
2019-02-21T01:35:52.148Z,5.83
2019-02-21T01:38:20.559Z,6.70
2019-02-21T01:40:48.966Z,6.27
2019-02-21T01:43:17.370Z,5.97
2019-02-21T01:45:45.764Z,6.10
2019-02-21T01:48:14.170Z,5.90
2019-02-21T01:50:42.255Z,6.00
2019-02-21T01:53:10.650Z,6.40
2019-02-21T01:55:39.252Z,6.40
2019-02-21T01:58:07.660Z,5.83
2019-02-21T02:00:36.166Z,6.40
2019-02-21T02:03:04.840Z,6.37
2019-02-21T02:05:33.232Z,6.70
2019-02-21T02:08:01.643Z,6.47
2019-02-21T02:10:29.714Z,6.70
2019-02-21T02:12:58.134Z,5.73
2019-02-21T02:15:26.471Z,6.67
2019-02-21T02:17:54.879Z,5.83
2019-02-21T02:20:23.272Z,6.13
2019-02-21T02:22:51.684Z,7.10
2019-02-21T02:25:20.080Z,6.73
2019-02-21T02:27:48.664Z,7.07
2019-02-21T02:30:17.061Z,6.23
2019-02-21T02:32:45.292Z,5.53
2019-02-21T02:35:13.357Z,6.77
2019-02-21T02:37:41.764Z,6.03
2019-02-21T02:40:10.204Z,5.40
2019-02-21T02:42:38.601Z,7.37
2019-02-21T02:45:07.546Z,7.47
2019-02-21T02:47:35.940Z,6.63
2019-02-21T02:50:06.138Z,6.20
2019-02-21T02:52:34.652Z,7.20
2019-02-21T02:55:03.041Z,6.33
2019-02-21T02:57:31.456Z,6.60
2019-02-21T02:59:59.848Z,6.23
2019-02-21T03:02:28.253Z,6.30
2019-02-21T03:04:56.705Z,6.50
2019-02-21T03:07:25.218Z,6.77
2019-02-21T03:09:53.292Z,6.03
2019-02-21T03:12:21.684Z,6.33
2019-02-21T03:14:50.097Z,6.13
2019-02-21T03:17:18.499Z,7.10
2019-02-21T03:19:46.900Z,5.90
2019-02-21T03:22:15.334Z,6.47
2019-02-21T03:24:43.736Z,6.73
2019-02-21T03:27:12.127Z,5.93
2019-02-21T03:29:40.583Z,5.70
2019-02-21T03:32:08.970Z,6.77
2019-02-21T03:34:37.412Z,5.93
2019-02-21T03:37:05.567Z,6.10
2019-02-21T03:39:33.969Z,5.33
2019-02-21T03:42:02.404Z,5.90
2019-02-21T03:44:30.837Z,5.73
2019-02-21T03:46:59.264Z,6.13
2019-02-21T03:49:27.665Z,5.57
2019-02-21T03:51:56.252Z,6.13
2019-02-21T03:54:24.735Z,5.97
2019-02-21T03:56:52.804Z,5.90
2019-02-21T03:59:21.291Z,5.70
2019-02-21T04:01:49.723Z,6.20
2019-02-21T04:04:18.134Z,5.60
2019-02-21T04:06:46.633Z,6.13
2019-02-21T04:09:15.036Z,6.43
2019-02-21T04:11:43.431Z,5.97
2019-02-21T04:14:11.901Z,5.57
2019-02-21T04:16:40.307Z,6.10
2019-02-21T04:19:08.700Z,5.80
2019-02-21T04:21:37.131Z,4.77
2019-02-21T04:24:05.525Z,5.13
2019-02-21T04:26:33.923Z,5.40
2019-02-21T04:29:02.370Z,6.13
2019-02-21T04:31:30.813Z,5.23
2019-02-21T04:33:59.276Z,5.20
2019-02-21T04:36:27.340Z,4.77
2019-02-21T04:38:55.743Z,5.23
2019-02-21T04:41:24.138Z,5.33
2019-02-21T04:43:52.540Z,5.60
2019-02-21T04:46:20.928Z,5.07
2019-02-21T04:48:49.376Z,5.73
2019-02-21T04:51:17.766Z,5.10
2019-02-21T04:53:46.174Z,5.60
2019-02-21T04:56:14.569Z,5.23
2019-02-21T04:58:42.820Z,5.47
2019-02-21T05:01:11.315Z,5.53
2019-02-21T05:03:39.927Z,5.80
2019-02-21T05:06:08.313Z,5.90
2019-02-21T05:08:36.816Z,5.73
2019-02-21T05:11:05.296Z,5.37
2019-02-21T05:13:33.967Z,5.23
2019-02-21T05:16:02.760Z,5.47
2019-02-21T05:18:31.157Z,4.93
2019-02-21T05:20:59.604Z,5.60
2019-02-21T05:23:27.988Z,5.13
2019-02-21T05:25:56.059Z,5.50
2019-02-21T05:28:26.100Z,5.47
2019-02-21T05:30:56.170Z,5.20
2019-02-21T05:33:42.500Z,5.07
2019-02-21T05:36:15.585Z,5.10
2019-02-21T05:38:45.617Z,5.63
2019-02-21T05:41:21.334Z,4.73
2019-02-21T05:43:54.330Z,5.27
2019-02-21T05:46:24.373Z,5.53
2019-02-21T05:48:54.447Z,5.53
2019-02-21T05:51:24.709Z,5.07
2019-02-21T05:53:58.077Z,5.87
2019-02-21T05:56:34.402Z,5.60
2019-02-21T05:59:07.460Z,5.43
2019-02-21T06:01:37.505Z,5.47
2019-02-21T06:04:09.922Z,5.73
2019-02-21T06:06:39.961Z,5.27
2019-02-21T06:09:16.024Z,5.50
2019-02-21T06:11:55.348Z,4.93
2019-02-21T06:14:28.314Z,5.40
2019-02-21T06:16:58.356Z,5.17
2019-02-21T06:19:30.716Z,5.17
2019-02-21T06:22:10.681Z,5.63
2019-02-21T06:24:38.144Z,5.10
2019-02-21T06:27:08.188Z,4.30
2019-02-21T06:29:38.217Z,4.87
2019-02-21T06:32:14.257Z,5.37
2019-02-21T06:34:36.744Z,4.70
2019-02-21T06:37:05.212Z,4.23
2019-02-21T06:39:33.617Z,5.67
2019-02-21T06:42:02.032Z,4.93
2019-02-21T06:44:30.111Z,5.30
2019-02-21T06:46:58.607Z,4.93
2019-02-21T06:49:32.553Z,5.63
2019-02-21T06:51:56.824Z,4.77
2019-02-21T06:54:25.244Z,4.67
2019-02-21T06:56:53.691Z,5.30
2019-02-21T06:59:23.658Z,4.93
2019-02-21T07:01:51.583Z,4.60
2019-02-21T07:04:20.018Z,5.97
2019-02-21T07:06:48.424Z,5.83
2019-02-21T07:09:16.854Z,4.70
2019-02-21T07:11:46.036Z,5.50
2019-02-21T07:14:14.692Z,5.40
2019-02-21T07:16:43.143Z,4.90
2019-02-21T07:19:11.620Z,4.15
2019-02-21T07:21:40.029Z,4.97
2019-02-21T07:24:08.106Z,4.77
2019-02-21T07:26:36.505Z,4.50
2019-02-21T07:29:04.639Z,4.87
2019-02-21T07:31:33.048Z,5.33
2019-02-21T07:34:01.810Z,4.45
2019-02-21T07:36:30.282Z,4.72
2019-02-21T07:39:13.684Z,4.72
2019-02-21T07:41:28.568Z,5.20
2019-02-21T07:43:56.641Z,4.90
2019-02-21T07:46:24.756Z,4.55
2019-02-21T07:48:53.181Z,4.70
2019-02-21T07:51:21.572Z,5.12
2019-02-21T07:53:50.040Z,5.22
2019-02-21T07:56:18.425Z,4.85
2019-02-21T07:58:46.546Z,4.53
2019-02-21T08:01:17.346Z,4.90
2019-02-21T08:03:48.127Z,4.70
2019-02-21T08:06:14.991Z,5.08
2019-02-21T08:08:44.927Z,4.92
2019-02-21T08:11:13.184Z,4.35
2019-02-21T08:13:41.588Z,4.85
2019-02-21T08:16:12.402Z,5.17
2019-02-21T08:18:40.163Z,4.45
2019-02-21T08:21:08.258Z,5.05
2019-02-21T08:23:36.696Z,4.75
2019-02-21T08:26:05.088Z,5.03
2019-02-21T08:28:33.499Z,4.58
2019-02-21T08:31:01.895Z,4.83
2019-02-21T08:33:47.098Z,4.42
2019-02-21T08:36:14.324Z,5.17
2019-02-21T08:38:42.727Z,4.97
2019-02-21T08:41:11.166Z,5.25
2019-02-21T08:43:39.602Z,4.40
2019-02-21T08:46:08.000Z,5.30
2019-02-21T08:48:36.445Z,4.78
2019-02-21T08:51:06.275Z,5.20
2019-02-21T08:53:34.753Z,6.30
2019-02-21T08:56:03.157Z,5.42
2019-02-21T08:58:31.552Z,6.03
2019-02-21T09:00:59.636Z,6.12
2019-02-21T09:03:28.040Z,5.78
2019-02-21T09:05:56.448Z,6.22
2019-02-21T09:08:33.125Z,5.92
2019-02-21T09:10:55.220Z,5.60
2019-02-21T09:13:24.010Z,6.03
2019-02-21T09:15:52.646Z,6.28
2019-02-21T09:18:21.154Z,5.80
2019-02-21T09:20:49.605Z,6.03
2019-02-21T09:23:18.021Z,5.92
2019-02-21T09:25:46.409Z,5.67
2019-02-21T09:28:15.840Z,6.28
2019-02-21T09:30:44.546Z,5.80
2019-02-21T09:33:17.455Z,6.08
2019-02-21T09:35:42.821Z,6.37
2019-02-21T09:38:10.888Z,6.33
2019-02-21T09:40:39.440Z,6.20
2019-02-21T09:43:07.918Z,7.15
2019-02-21T09:45:35.996Z,6.78
2019-02-21T09:48:04.103Z,7.33
2019-02-21T09:50:32.552Z,7.30
2019-02-21T09:53:00.960Z,6.47
2019-02-21T09:55:29.808Z,6.25
2019-02-21T09:57:58.324Z,6.70
2019-02-21T10:00:26.419Z,7.72
2019-02-21T10:02:56.723Z,6.95
2019-02-21T10:05:24.961Z,7.50
2019-02-21T10:07:53.359Z,7.47
2019-02-21T10:10:21.778Z,7.15
2019-02-21T10:12:49.880Z,6.70
2019-02-21T10:15:18.280Z,7.08
2019-02-21T10:17:46.763Z,7.90
2019-02-21T10:20:16.036Z,7.47
2019-02-21T10:22:44.440Z,7.40
2019-02-21T10:25:18.649Z,6.35
2019-02-21T10:27:46.797Z,5.90
2019-02-21T10:30:17.927Z,6.25
2019-02-21T10:32:46.322Z,7.70
2019-02-21T10:35:14.766Z,6.28
2019-02-21T10:37:43.172Z,6.10
2019-02-21T10:40:12.426Z,6.10
2019-02-21T10:42:40.871Z,6.67
2019-02-21T10:45:22.399Z,6.55
2019-02-21T10:47:50.807Z,7.00
2019-02-21T10:50:20.346Z,6.83
2019-02-21T10:52:48.912Z,6.17
2019-02-21T10:55:18.170Z,6.75
2019-02-21T10:57:46.568Z,5.83
2019-02-21T11:00:26.466Z,6.47
2019-02-21T11:02:55.246Z,6.40
2019-02-21T11:05:23.656Z,6.50
2019-02-21T11:07:52.133Z,6.50
2019-02-21T11:10:28.562Z,7.28
2019-02-21T11:12:57.031Z,6.00
2019-02-21T11:15:25.559Z,6.87
2019-02-21T11:17:53.956Z,6.53
2019-02-21T11:20:22.668Z,6.75
2019-02-21T11:22:51.143Z,7.37
2019-02-21T11:25:19.215Z,7.12
2019-02-21T11:27:47.628Z,6.30
2019-02-21T11:30:19.084Z,7.60
2019-02-21T11:32:47.501Z,6.28
2019-02-21T11:35:15.914Z,6.50
2019-02-21T11:37:47.018Z,7.25
2019-02-21T11:40:15.666Z,7.12
2019-02-21T11:42:44.815Z,8.25
2019-02-21T11:45:16.296Z,8.38
2019-02-21T11:47:45.037Z,8.55
2019-02-21T11:50:15.402Z,8.20
2019-02-21T11:52:43.821Z,8.08
2019-02-21T11:55:13.072Z,7.95
2019-02-21T11:57:41.519Z,8.18
2019-02-21T12:00:11.460Z,6.67
2019-02-21T12:02:39.872Z,8.00
2019-02-21T12:05:17.146Z,8.15
2019-02-21T12:07:38.480Z,8.13
2019-02-21T12:10:09.959Z,7.67
2019-02-21T12:12:38.040Z,7.67
2019-02-21T12:15:07.657Z,7.42
2019-02-21T12:17:36.116Z,9.08
2019-02-21T12:20:10.445Z,7.87
2019-02-21T12:22:38.856Z,8.35
2019-02-21T12:25:10.005Z,7.58
2019-02-21T12:27:38.431Z,8.75
2019-02-21T12:30:12.493Z,7.67
2019-02-21T12:32:40.908Z,7.92
2019-02-21T12:35:09.620Z,8.53
2019-02-21T12:37:37.692Z,8.10
2019-02-21T12:40:11.894Z,8.18
2019-02-21T12:42:39.972Z,8.10
2019-02-21T12:45:14.284Z,8.33
2019-02-21T12:47:50.814Z,8.35
2019-02-21T12:50:13.421Z,8.38
2019-02-21T12:52:41.871Z,7.80
2019-02-21T12:55:11.406Z,8.10
2019-02-21T12:57:39.491Z,8.28
2019-02-21T13:00:10.904Z,8.30
2019-02-21T13:02:39.315Z,7.10
2019-02-21T13:05:08.253Z,7.95
2019-02-21T13:07:36.672Z,8.63
2019-02-21T13:10:08.261Z,8.18
2019-02-21T13:12:36.668Z,8.23
2019-02-21T13:15:07.404Z,8.50
2019-02-21T13:17:35.821Z,8.83
2019-02-21T13:20:06.870Z,7.75
2019-02-21T13:22:35.407Z,8.25
2019-02-21T13:25:04.448Z,8.03
2019-02-21T13:27:32.860Z,7.65
2019-02-21T13:30:01.386Z,8.18
2019-02-21T13:32:29.787Z,8.35
2019-02-21T13:34:58.234Z,8.80
2019-02-21T13:37:29.101Z,9.40
2019-02-21T13:39:56.440Z,8.30
2019-02-21T13:42:24.886Z,8.95
2019-02-21T13:44:53.426Z,8.25
2019-02-21T13:47:21.824Z,8.90
2019-02-21T13:49:50.279Z,8.40
2019-02-21T13:52:18.675Z,8.00
2019-02-21T13:54:47.169Z,8.15
2019-02-21T13:57:15.607Z,7.95
2019-02-21T13:59:44.017Z,7.28
2019-02-21T14:02:15.185Z,7.95
2019-02-21T14:04:42.597Z,8.13
2019-02-21T14:07:11.063Z,7.78
2019-02-21T14:09:39.528Z,7.17
2019-02-21T14:12:08.047Z,7.65
2019-02-21T14:14:36.678Z,6.67
2019-02-21T14:17:05.075Z,6.97
2019-02-21T14:19:33.488Z,6.72
2019-02-21T14:22:01.896Z,6.15
2019-02-21T14:24:36.724Z,5.75
2019-02-21T14:27:00.195Z,6.45
2019-02-21T14:29:38.860Z,6.53
2019-02-21T14:31:58.405Z,5.65
2019-02-21T14:34:26.829Z,5.53
2019-02-21T14:36:55.263Z,6.47
2019-02-21T14:39:23.707Z,5.85
2019-02-21T14:41:52.179Z,5.30
2019-02-21T14:44:20.592Z,5.62
2019-02-21T14:46:50.292Z,5.83
2019-02-21T14:49:19.051Z,5.12
2019-02-21T14:51:47.455Z,6.08
2019-02-21T14:54:16.610Z,6.35
2019-02-21T14:56:44.827Z,4.62
2019-02-21T14:59:13.271Z,5.20
2019-02-21T15:01:41.376Z,5.10
2019-02-21T15:04:09.818Z,4.62
2019-02-21T15:06:38.216Z,5.33
2019-02-21T15:09:07.081Z,4.55
2019-02-21T15:11:35.480Z,4.50
2019-02-21T15:14:03.896Z,4.95
2019-02-21T15:16:32.297Z,5.05
2019-02-21T15:19:00.367Z,4.92
2019-02-21T15:21:28.819Z,4.95
2019-02-21T15:23:57.218Z,5.65
2019-02-21T15:26:25.629Z,4.17
2019-02-21T15:28:53.806Z,4.47
2019-02-21T15:31:21.877Z,3.50
2019-02-21T15:33:50.276Z,4.25
2019-02-21T15:36:18.684Z,3.92
2019-02-21T15:38:46.756Z,4.50
2019-02-21T15:41:15.167Z,4.37
2019-02-21T15:43:43.610Z,3.70
2019-02-21T15:46:12.071Z,3.20
2019-02-21T15:48:40.278Z,4.05
2019-02-21T15:51:08.840Z,3.72
2019-02-21T15:53:37.276Z,5.03
2019-02-21T15:56:05.719Z,5.47
2019-02-21T15:58:34.121Z,6.30
2019-02-21T16:01:02.540Z,4.15
2019-02-21T16:03:30.979Z,4.90
2019-02-21T16:05:59.392Z,3.85
2019-02-21T16:08:27.794Z,3.52
2019-02-21T16:10:56.067Z,3.47
2019-02-21T16:13:24.604Z,3.25
2019-02-21T16:15:53.248Z,3.30
2019-02-21T16:18:21.644Z,3.20
2019-02-21T16:20:50.044Z,3.15
2019-02-21T16:23:19.393Z,3.33
2019-02-21T16:25:47.973Z,2.90
2019-02-21T16:28:16.419Z,3.12
2019-02-21T16:30:44.813Z,3.80
2019-02-21T16:33:12.976Z,3.10
2019-02-21T16:35:41.041Z,2.90
2019-02-21T16:38:09.119Z,2.67
2019-02-21T16:40:37.558Z,2.42
2019-02-21T16:43:05.960Z,3.08
2019-02-21T16:45:43.698Z,3.17
2019-02-21T16:48:04.525Z,2.95
2019-02-21T16:50:32.931Z,2.65
2019-02-21T16:53:01.397Z,2.58
2019-02-21T16:55:29.469Z,2.67
2019-02-21T16:57:57.876Z,2.67
2019-02-21T17:00:37.271Z,2.98
2019-02-21T17:02:56.450Z,3.33
2019-02-21T17:05:24.893Z,3.10
2019-02-21T17:07:53.328Z,4.12
2019-02-21T17:10:21.772Z,3.45
2019-02-21T17:12:51.064Z,3.30
2019-02-21T17:15:19.548Z,2.92
2019-02-21T17:17:47.959Z,2.80
2019-02-21T17:20:18.384Z,2.80
2019-02-21T17:22:46.791Z,3.55
2019-02-21T17:25:16.025Z,3.40
2019-02-21T17:27:45.764Z,4.08
2019-02-21T17:30:18.507Z,3.65
2019-02-21T17:32:47.042Z,3.72
2019-02-21T17:35:15.474Z,3.95
2019-02-21T17:37:43.935Z,4.58
2019-02-21T17:40:18.221Z,5.60
2019-02-21T17:42:46.677Z,4.72
2019-02-21T17:45:15.099Z,4.42
2019-02-21T17:47:43.547Z,4.80
2019-02-21T17:50:17.340Z,3.50
2019-02-21T17:52:45.495Z,3.83
2019-02-21T17:55:14.933Z,4.60
2019-02-21T17:57:43.116Z,3.25
2019-02-21T18:00:21.565Z,3.05
2019-02-21T18:02:50.092Z,3.10
2019-02-21T18:05:18.217Z,3.15
2019-02-21T18:07:46.627Z,3.37
2019-02-21T18:10:16.252Z,3.55
2019-02-21T18:12:44.753Z,3.27
2019-02-21T18:15:13.939Z,3.25
2019-02-21T18:17:42.340Z,2.70
2019-02-21T18:20:16.832Z,3.52
2019-02-21T18:22:45.426Z,3.00
2019-02-21T18:25:19.671Z,2.87
2019-02-21T18:27:48.080Z,2.50
2019-02-21T18:30:17.458Z,3.15
2019-02-21T18:32:45.898Z,3.30
2019-02-21T18:35:14.307Z,3.10
2019-02-21T18:37:47.462Z,2.72
2019-02-21T18:40:20.811Z,2.52
2019-02-21T18:42:48.508Z,2.50
2019-02-21T18:45:16.981Z,3.83
2019-02-21T18:47:45.371Z,3.12
2019-02-21T18:50:14.819Z,2.55
2019-02-21T18:52:43.334Z,3.02
2019-02-21T18:55:11.987Z,3.00
2019-02-21T18:57:40.381Z,2.70
2019-02-21T19:00:14.667Z,3.50
2019-02-21T19:02:43.117Z,3.47
2019-02-21T19:05:11.538Z,2.87
2019-02-21T19:07:40.015Z,2.80
2019-02-21T19:10:09.955Z,2.80
2019-02-21T19:12:38.359Z,2.92
2019-02-21T19:15:07.538Z,2.62
2019-02-21T19:17:35.931Z,3.05
2019-02-21T19:20:06.353Z,2.85
2019-02-21T19:22:34.740Z,3.77
2019-02-21T19:25:03.784Z,2.83
2019-02-21T19:27:37.091Z,2.62
2019-02-21T19:30:02.575Z,2.00
2019-02-21T19:32:31.002Z,2.70
2019-02-21T19:34:59.447Z,2.70
2019-02-21T19:37:27.875Z,3.40
2019-02-21T19:39:58.507Z,2.80
2019-02-21T19:42:26.947Z,3.05
2019-02-21T19:44:55.104Z,3.95
2019-02-21T19:47:23.554Z,3.67
2019-02-21T19:49:51.995Z,3.90
2019-02-21T19:52:20.511Z,3.40
2019-02-21T19:54:48.920Z,3.70
2019-02-21T19:57:17.030Z,3.67
2019-02-21T19:59:45.460Z,4.03
2019-02-21T20:02:13.539Z,4.30
2019-02-21T20:04:42.019Z,4.40
2019-02-21T20:07:10.421Z,4.60
2019-02-21T20:09:38.820Z,3.90
2019-02-21T20:12:07.387Z,4.47
2019-02-21T20:14:35.865Z,3.87
2019-02-21T20:17:04.400Z,4.33
2019-02-21T20:19:32.472Z,4.30
2019-02-21T20:22:00.881Z,4.72
2019-02-21T20:24:29.318Z,4.20
2019-02-21T20:27:00.163Z,4.95
2019-02-21T20:29:33.532Z,5.10
2019-02-21T20:32:01.933Z,4.03
2019-02-21T20:34:30.352Z,4.72
2019-02-21T20:36:58.783Z,5.50
2019-02-21T20:39:27.331Z,4.35
2019-02-21T20:41:55.804Z,4.80
2019-02-21T20:44:23.885Z,4.33
2019-02-21T20:46:52.351Z,5.17
2019-02-21T20:49:20.416Z,4.62
2019-02-21T20:51:48.950Z,4.47
2019-02-21T20:54:17.347Z,4.58
2019-02-21T20:56:45.856Z,4.70
2019-02-21T20:59:14.290Z,4.58
2019-02-21T21:01:43.231Z,5.42
2019-02-21T21:04:11.626Z,8.75
2019-02-21T21:06:40.103Z,4.97
2019-02-21T21:09:08.951Z,5.60
2019-02-21T21:11:37.367Z,5.50
2019-02-21T21:14:05.907Z,5.87
2019-02-21T21:16:34.042Z,5.03
2019-02-21T21:19:02.439Z,6.17
2019-02-21T21:21:30.848Z,6.58
2019-02-21T21:23:58.956Z,7.30
2019-02-21T21:26:27.374Z,6.80
2019-02-21T21:28:55.770Z,6.12
2019-02-21T21:31:23.848Z,5.97
2019-02-21T21:33:52.309Z,5.28
2019-02-21T21:36:40.053Z,6.75
2019-02-21T21:39:08.788Z,6.42
2019-02-21T21:41:37.192Z,6.40
2019-02-21T21:44:05.596Z,6.78
2019-02-21T21:46:34.003Z,7.12
2019-02-21T21:49:02.514Z,7.08
2019-02-21T21:51:31.028Z,6.80
2019-02-21T21:53:59.420Z,6.67
2019-02-21T21:56:27.500Z,7.42
2019-02-21T21:58:55.909Z,6.65
2019-02-21T22:01:24.382Z,5.83
2019-02-21T22:03:52.829Z,6.42
2019-02-21T22:06:20.912Z,5.85
2019-02-21T22:08:49.311Z,5.40
2019-02-21T22:11:17.795Z,6.12
2019-02-21T22:13:45.858Z,6.42
2019-02-21T22:16:14.271Z,5.62
2019-02-21T22:18:42.766Z,6.53
2019-02-21T22:21:11.184Z,5.95
2019-02-21T22:23:39.250Z,5.90
2019-02-21T22:26:07.672Z,5.97
2019-02-21T22:28:36.072Z,6.28
2019-02-21T22:31:04.472Z,6.10
2019-02-21T22:33:32.873Z,6.70
2019-02-21T22:36:01.281Z,5.92
2019-02-21T22:38:29.692Z,5.90
2019-02-21T22:40:58.101Z,5.90
2019-02-21T22:43:26.497Z,5.85
2019-02-21T22:45:54.940Z,5.92
2019-02-21T22:48:23.328Z,6.50
2019-02-21T22:50:51.783Z,6.33
2019-02-21T22:53:19.898Z,7.08
2019-02-21T22:55:48.334Z,6.17
2019-02-21T22:58:16.740Z,7.28
2019-02-21T23:00:58.480Z,6.50
2019-02-21T23:03:29.960Z,7.22
2019-02-21T23:06:08.548Z,7.40
2019-02-21T23:08:42.767Z,6.33
2019-02-21T23:11:11.456Z,7.15
2019-02-21T23:13:40.026Z,7.15
2019-02-21T23:16:08.492Z,7.47
2019-02-21T23:18:36.896Z,7.42
2019-02-21T23:21:05.610Z,7.50
2019-02-21T23:23:34.038Z,7.95
2019-02-21T23:26:02.433Z,7.15
2019-02-21T23:28:30.841Z,6.75
2019-02-21T23:30:59.232Z,6.47
2019-02-21T23:33:28.213Z,6.40
2019-02-21T23:35:56.610Z,7.05
2019-02-21T23:38:25.016Z,7.03
2019-02-21T23:40:53.416Z,6.95
2019-02-21T23:43:21.504Z,7.65
2019-02-21T23:45:49.901Z,7.10
2019-02-21T23:48:18.350Z,7.50
2019-02-21T23:50:46.779Z,8.30
2019-02-21T23:53:15.180Z,8.00
2019-02-21T23:55:43.614Z,7.25
2019-02-21T23:58:11.696Z,6.08
